Time;durP1;ratioP1;P1;durP2;ratioP2;P2;SDS_P1;SDS_P2;PMS_P1;PMS_P2;Temp;Humidity;BMP_temperature;BMP_pressure;BME280_temperature;BME280_humidity;BME280_pressure;Samples;Min_cycle;Max_cycle;Signal;HPM_P1;HPM_P2
2021/09/19 12:23:47;;;;;;;15.27;14.67;;;29.50;64.70;;;;;;5104541;23;20476;-70
2021/09/19 12:26:17;;;;;;;15.73;15.10;;;29.90;65.00;;;;;;5011283;28;20449;-71
2021/09/19 12:28:45;;;;;;;15.50;14.90;;;29.80;63.60;;;;;;5013024;28;20802;-70
2021/09/19 12:31:13;;;;;;;15.60;14.87;;;28.60;66.80;;;;;;5012781;28;20830;-70
2021/09/19 12:33:51;;;;;;;15.60;15.00;;;28.10;69.60;;;;;;5016316;28;20476;-70
2021/09/19 12:36:17;;;;;;;15.07;14.37;;;28.80;68.20;;;;;;5026502;28;20459;-71
2021/09/19 12:38:47;;;;;;;15.70;15.10;;;30.10;64.50;;;;;;5016001;28;20548;-71
2021/09/19 12:41:15;;;;;;;15.23;14.53;;;30.60;62.10;;;;;;5014847;28;20497;-72
2021/09/19 12:43:43;;;;;;;14.70;14.10;;;30.00;62.80;;;;;;5032878;28;20453;-72
2021/09/19 12:46:13;;;;;;;15.80;15.10;;;28.60;66.10;;;;;;5032359;28;20449;-71
2021/09/19 12:48:41;;;;;;;14.77;14.17;;;27.10;68.90;;;;;;5032393;28;20485;-71
2021/09/19 12:51:07;;;;;;;15.30;14.70;;;26.60;72.60;;;;;;5019010;28;20446;-71
2021/09/19 12:53:37;;;;;;;14.00;13.40;;;27.20;72.30;;;;;;5012387;28;20481;-72
2021/09/19 12:56:06;;;;;;;15.47;14.77;;;27.10;72.00;;;;;;5012450;28;20458;-72
2021/09/19 12:58:32;;;;;;;15.70;15.00;;;26.40;73.60;;;;;;5012196;28;20508;-71
2021/09/19 13:00:59;;;;;;;15.03;14.43;;;25.30;76.90;;;;;;5012742;28;20461;-70
2021/09/19 13:03:26;;;;;;;14.63;14.03;;;24.70;80.20;;;;;;5012494;28;20446;-72
2021/09/19 13:05:56;;;;;;;15.67;14.97;;;24.30;82.60;;;;;;5012263;28;20553;-71
2021/09/19 13:08:24;;;;;;;15.10;14.40;;;24.00;83.30;;;;;;5026756;28;20449;-72
2021/09/19 13:10:51;;;;;;;15.13;14.53;;;23.70;85.70;;;;;;5031750;28;20536;-72
2021/09/19 13:13:21;;;;;;;15.27;14.43;;;23.70;86.80;;;;;;5031859;28;20567;-72
2021/09/19 13:15:48;;;;;;;15.30;14.60;;;24.90;84.00;;;;;;5018971;28;20447;-72
2021/09/19 13:18:15;;;;;;;15.20;14.40;;;25.30;80.50;;;;;;5005906;28;20453;-71
2021/09/19 13:20:42;;;;;;;15.00;14.30;;;24.60;81.10;;;;;;5012002;28;20500;-71
2021/09/19 13:23:09;;;;;;;15.77;15.17;;;24.40;83.10;;;;;;5005718;28;20533;-71
2021/09/19 13:25:35;;;;;;;15.17;14.47;;;24.30;83.70;;;;;;4992378;28;20840;-72
2021/09/19 13:28:02;;;;;;;15.60;14.90;;;24.20;85.20;;;;;;4992276;28;20462;-71
2021/09/19 13:30:30;;;;;;;15.77;14.97;;;24.00;88.30;;;;;;4992554;28;20931;-71
2021/09/19 13:32:57;;;;;;;15.97;15.17;;;24.60;86.90;;;;;;4992467;28;20966;-71
2021/09/19 13:35:24;;;;;;;16.30;15.50;;;24.60;86.00;;;;;;4984193;28;20962;-69
2021/09/19 13:37:50;;;;;;;15.50;14.80;;;24.30;88.00;;;;;;4992070;28;20461;-71
2021/09/19 13:40:18;;;;;;;14.70;14.00;;;24.60;87.40;;;;;;4991812;28;20486;-72
2021/09/19 13:42:44;;;;;;;14.70;14.07;;;25.20;85.40;;;;;;4991395;28;20562;-68
2021/09/19 13:45:12;;;;;;;14.77;13.97;;;25.10;85.70;;;;;;4992094;28;20458;-71
2021/09/19 13:47:42;;;;;;;15.43;14.73;;;25.30;86.30;;;;;;4992035;28;20814;-71
2021/09/19 13:50:09;;;;;;;15.40;14.60;;;25.80;84.30;;;;;;4991769;28;20458;-71
2021/09/19 13:52:36;;;;;;;13.90;13.30;;;25.90;83.00;;;;;;4991601;28;20455;-71
2021/09/19 13:55:04;;;;;;;14.97;14.37;;;25.80;82.00;;;;;;4991467;28;20482;-70
2021/09/19 13:57:30;;;;;;;15.60;15.00;;;25.30;84.40;;;;;;4991993;28;20859;-70
2021/09/19 13:59:57;;;;;;;15.00;14.10;;;24.80;86.00;;;;;;4991896;28;20478;-70
2021/09/19 14:02:24;;;;;;;15.30;14.60;;;24.40;87.00;;;;;;4991701;28;20458;-70
2021/09/19 14:04:52;;;;;;;14.43;13.80;;;23.60;86.90;;;;;;4991734;28;20688;-70
2021/09/19 14:07:19;;;;;;;14.47;13.77;;;23.40;88.50;;;;;;4991504;28;21064;-70
2021/09/19 14:09:45;;;;;;;14.87;14.17;;;23.30;89.60;;;;;;4991657;28;20454;-70
2021/09/19 14:12:12;;;;;;;13.93;13.33;;;23.30;90.10;;;;;;4991683;28;20942;-69
2021/09/19 14:14:39;;;;;;;15.30;14.60;;;23.20;90.40;;;;;;4991521;28;20774;-70
2021/09/19 14:17:05;;;;;;;15.43;14.53;;;23.40;90.70;;;;;;4991407;28;20450;-70
2021/09/19 14:19:32;;;;;;;14.13;13.43;;;23.40;89.30;;;;;;4991338;28;20491;-71
2021/09/19 14:22:00;;;;;;;15.00;14.30;;;23.60;89.50;;;;;;4991167;28;20486;-70
2021/09/19 14:24:27;;;;;;;14.70;14.10;;;23.70;88.70;;;;;;4991545;28;20450;-70
2021/09/19 14:26:54;;;;;;;14.50;13.63;;;23.80;89.20;;;;;;4991306;28;20454;-70
2021/09/19 14:29:21;;;;;;;13.83;13.23;;;23.80;89.30;;;;;;4991256;28;20451;-70
2021/09/19 14:31:48;;;;;;;15.90;15.00;;;23.50;90.40;;;;;;4991134;28;20929;-70
2021/09/19 14:34:14;;;;;;;14.73;14.13;;;23.20;90.60;;;;;;4991239;28;20874;-70
2021/09/19 14:36:41;;;;;;;15.33;14.53;;;22.90;91.20;;;;;;4991120;28;20455;-70
2021/09/19 14:39:09;;;;;;;15.90;15.10;;;22.80;91.80;;;;;;4990917;28;20505;-70
2021/09/19 14:41:36;;;;;;;14.60;14.00;;;22.90;91.80;;;;;;4991034;28;20455;-70
2021/09/19 14:44:03;;;;;;;15.43;14.70;;;23.00;91.50;;;;;;4991093;28;20451;-70
2021/09/19 14:46:30;;;;;;;16.10;15.20;;;23.10;91.50;;;;;;4990759;28;20956;-70
2021/09/19 14:48:57;;;;;;;15.67;14.97;;;23.00;92.00;;;;;;4991183;28;20866;-70
2021/09/19 14:51:24;;;;;;;14.70;14.10;;;22.90;91.90;;;;;;4990878;28;20541;-71
2021/09/19 14:53:51;;;;;;;15.30;14.60;;;23.00;91.90;;;;;;4990402;28;20451;-69
2021/09/19 14:56:19;;;;;;;16.20;15.30;;;22.80;91.10;;;;;;4990821;28;20481;-70
2021/09/19 14:58:46;;;;;;;14.73;14.03;;;22.60;91.40;;;;;;5006496;28;20446;-70
2021/09/19 15:01:12;;;;;;;14.90;14.23;;;22.40;91.90;;;;;;5010253;28;21053;-72
2021/09/19 15:03:39;;;;;;;15.10;14.40;;;22.20;92.40;;;;;;5009608;28;20810;-70
2021/09/19 15:06:06;;;;;;;14.70;14.10;;;21.80;93.00;;;;;;5010043;28;20720;-70
2021/09/19 15:08:33;;;;;;;14.70;14.00;;;21.70;93.60;;;;;;5010232;28;20454;-70
2021/09/19 15:11:00;;;;;;;15.27;14.57;;;21.60;93.80;;;;;;5010067;28;20450;-69
2021/09/19 15:13:28;;;;;;;15.43;14.57;;;21.70;94.00;;;;;;5010510;28;20450;-72
2021/09/19 15:15:55;;;;;;;14.70;14.00;;;21.60;94.20;;;;;;5010438;28;20454;-71
2021/09/19 15:18:21;;;;;;;14.87;14.10;;;21.70;94.90;;;;;;5029963;28;20464;-71
2021/09/19 15:20:48;;;;;;;13.70;13.10;;;21.70;94.70;;;;;;5029960;28;20543;-71
2021/09/19 15:23:15;;;;;;;14.47;13.77;;;21.60;95.00;;;;;;5029565;28;20476;-71
2021/09/19 15:25:41;;;;;;;13.63;12.83;;;21.50;94.60;;;;;;5030129;28;20445;-72
2021/09/19 15:28:08;;;;;;;14.47;13.77;;;21.50;94.70;;;;;;5029995;28;20453;-71
2021/09/19 15:30:36;;;;;;;14.13;13.53;;;21.40;95.10;;;;;;5029720;28;20541;-71
2021/09/19 15:33:03;;;;;;;14.03;13.43;;;21.40;95.80;;;;;;5029952;28;20449;-72
2021/09/19 15:35:32;;;;;;;13.87;13.27;;;21.40;96.10;;;;;;5029709;28;20453;-71
2021/09/19 15:37:59;;;;;;;14.80;14.10;;;21.30;96.40;;;;;;5029941;28;20453;-71
2021/09/19 15:40:25;;;;;;;13.43;12.83;;;21.30;96.70;;;;;;5029795;28;20542;-71
2021/09/19 15:42:54;;;;;;;14.17;13.50;;;21.40;96.70;;;;;;5029676;28;20576;-72
2021/09/19 15:45:25;;;;;;;14.63;13.93;;;21.40;96.70;;;;;;5029794;28;20946;-71
2021/09/19 15:47:55;;;;;;;14.27;13.53;;;21.40;96.20;;;;;;5029531;28;20809;-69
2021/09/19 15:50:23;;;;;;;14.47;13.87;;;21.10;95.70;;;;;;5029580;28;20489;-70
2021/09/19 15:52:50;;;;;;;14.03;13.43;;;21.00;95.80;;;;;;5029618;28;20544;-70
2021/09/19 15:55:17;;;;;;;14.57;13.97;;;20.90;96.40;;;;;;5029684;28;20453;-70
2021/09/19 15:57:44;;;;;;;14.27;13.67;;;20.80;97.40;;;;;;5029492;28;20948;-70
2021/09/19 16:00:11;;;;;;;13.67;12.90;;;20.80;97.90;;;;;;5029602;28;20524;-70
2021/09/19 16:02:38;;;;;;;14.50;13.80;;;20.90;98.00;;;;;;5029548;28;20460;-70
2021/09/19 16:05:09;;;;;;;13.40;12.70;;;20.70;97.90;;;;;;5031163;28;20456;-70
2021/09/19 16:07:36;;;;;;;14.30;13.70;;;20.80;98.50;;;;;;5033008;28;20449;-70
2021/09/19 16:10:03;;;;;;;12.90;12.30;;;20.60;98.20;;;;;;5033286;28;20845;-70
2021/09/19 16:12:29;;;;;;;14.07;13.47;;;20.50;98.50;;;;;;5033413;28;20506;-71
2021/09/19 16:14:56;;;;;;;15.10;14.23;;;20.20;99.20;;;;;;5033157;28;20958;-71
2021/09/19 16:17:23;;;;;;;15.10;14.40;;;20.10;99.40;;;;;;5033078;28;20961;-71
2021/09/19 16:19:50;;;;;;;14.70;13.70;;;19.90;99.60;;;;;;5033002;28;20453;-71
2021/09/19 16:22:18;;;;;;;14.63;13.73;;;19.90;99.90;;;;;;5032733;28;20495;-71
2021/09/19 16:24:44;;;;;;;13.83;13.10;;;19.80;99.90;;;;;;5033182;28;20942;-71
2021/09/19 16:27:11;;;;;;;14.53;13.90;;;19.60;99.90;;;;;;5033158;28;20453;-71
2021/09/19 16:29:37;;;;;;;14.40;13.60;;;19.60;99.90;;;;;;5033041;28;20453;-71
2021/09/19 16:32:05;;;;;;;14.50;13.90;;;19.50;99.90;;;;;;5032879;28;20449;-71
2021/09/19 16:34:32;;;;;;;13.90;13.20;;;19.40;99.90;;;;;;5032983;28;20516;-71
2021/09/19 16:36:59;;;;;;;13.50;12.80;;;19.30;99.90;;;;;;5033168;28;20449;-71
2021/09/19 16:39:27;;;;;;;14.37;13.47;;;19.30;99.90;;;;;;5033175;28;20846;-71
2021/09/19 16:41:53;;;;;;;13.90;13.30;;;19.20;99.90;;;;;;5032959;28;20484;-71
2021/09/19 16:44:20;;;;;;;13.97;13.27;;;19.20;99.90;;;;;;5032629;28;20943;-71
2021/09/19 16:46:47;;;;;;;13.70;13.07;;;19.10;99.90;;;;;;5032638;28;20507;-71
2021/09/19 16:49:13;;;;;;;13.20;12.60;;;19.10;99.90;;;;;;5033021;28;20453;-71
2021/09/19 16:51:40;;;;;;;13.97;13.17;;;19.00;99.90;;;;;;5032948;28;20445;-71
2021/09/19 16:54:07;;;;;;;13.33;12.63;;;18.90;99.90;;;;;;5032824;28;20785;-71
2021/09/19 16:56:35;;;;;;;13.60;13.00;;;18.90;99.90;;;;;;5032566;28;20877;-71
2021/09/19 16:59:01;;;;;;;13.40;12.80;;;18.80;99.90;;;;;;5032631;28;20500;-70
2021/09/19 17:01:28;;;;;;;14.20;13.40;;;18.80;99.90;;;;;;5032521;28;20487;-70
2021/09/19 17:03:55;;;;;;;14.37;13.70;;;18.70;99.90;;;;;;5032377;28;20473;-71
2021/09/19 17:06:21;;;;;;;13.73;13.00;;;18.60;99.90;;;;;;5030466;28;20871;-70
2021/09/19 17:08:49;;;;;;;14.40;13.70;;;18.60;99.90;;;;;;5032354;28;20463;-70
2021/09/19 17:11:18;;;;;;;15.10;14.40;;;18.60;99.90;;;;;;5032320;28;20453;-70
2021/09/19 17:13:50;;;;;;;14.30;13.70;;;18.50;99.90;;;;;;5032310;28;20489;-70
2021/09/19 17:16:17;;;;;;;14.60;13.80;;;18.50;99.90;;;;;;5032021;28;20491;-70
2021/09/19 17:18:44;;;;;;;15.10;14.30;;;18.40;99.90;;;;;;5032186;28;20503;-70
2021/09/19 17:21:11;;;;;;;14.30;13.50;;;18.30;99.90;;;;;;5031821;28;20489;-70
2021/09/19 17:23:38;;;;;;;14.60;13.90;;;18.20;99.90;;;;;;5031731;28;20846;-70
2021/09/19 17:26:05;;;;;;;14.47;13.70;;;18.10;99.90;;;;;;5032098;28;20495;-70
2021/09/19 17:28:31;;;;;;;14.87;14.10;;;18.00;99.90;;;;;;5031848;28;20506;-69
2021/09/19 17:30:59;;;;;;;14.63;13.93;;;18.00;99.90;;;;;;5031968;28;20445;-68
2021/09/19 17:33:26;;;;;;;14.33;13.63;;;17.90;99.90;;;;;;5031817;28;20453;-69
2021/09/19 17:35:54;;;;;;;15.00;14.07;;;17.90;99.90;;;;;;5031811;28;20827;-69
2021/09/19 17:38:21;;;;;;;14.70;13.80;;;17.80;99.90;;;;;;5031636;28;20465;-69
2021/09/19 17:40:48;;;;;;;15.23;14.23;;;17.70;99.90;;;;;;5031648;28;20578;-69
2021/09/19 17:43:15;;;;;;;14.87;14.00;;;17.60;99.90;;;;;;5031752;28;20935;-69
2021/09/19 17:45:41;;;;;;;14.47;13.67;;;17.60;99.90;;;;;;5031524;28;20457;-69
2021/09/19 17:48:09;;;;;;;15.20;14.30;;;17.50;99.90;;;;;;5031305;28;20441;-69
2021/09/19 17:50:36;;;;;;;15.77;14.87;;;17.50;99.90;;;;;;5031152;28;20445;-69
2021/09/19 17:53:03;;;;;;;13.40;12.70;;;17.30;99.90;;;;;;5031272;28;20460;-69
2021/09/19 17:55:30;;;;;;;13.43;12.63;;;17.20;99.90;;;;;;5031163;28;20448;-70
2021/09/19 17:57:57;;;;;;;15.37;14.57;;;17.20;99.90;;;;;;5031177;28;20471;-70
2021/09/19 18:00:24;;;;;;;15.87;15.07;;;17.10;99.90;;;;;;5030856;28;20485;-70
2021/09/19 18:02:51;;;;;;;15.60;14.77;;;17.10;99.90;;;;;;5030989;28;20812;-72
2021/09/19 18:05:19;;;;;;;15.03;14.13;;;16.80;99.90;;;;;;5030724;28;20461;-71
2021/09/19 18:07:45;;;;;;;15.03;14.17;;;16.70;99.90;;;;;;5031181;28;20479;-71
2021/09/19 18:10:12;;;;;;;15.23;14.23;;;16.60;99.90;;;;;;5031014;28;20862;-72
2021/09/19 18:12:39;;;;;;;14.87;14.07;;;16.50;99.90;;;;;;5030829;28;20836;-71
2021/09/19 18:15:07;;;;;;;16.37;15.47;;;16.50;99.90;;;;;;5030853;28;20468;-72
2021/09/19 18:17:34;;;;;;;16.00;15.00;;;16.50;99.90;;;;;;5030629;28;20503;-72
2021/09/19 18:20:00;;;;;;;16.63;15.43;;;16.50;99.90;;;;;;5030826;28;20457;-71
2021/09/19 18:22:29;;;;;;;14.20;13.40;;;16.50;99.90;;;;;;5030396;28;20489;-72
2021/09/19 18:24:55;;;;;;;16.13;15.20;;;16.50;99.90;;;;;;5031020;28;20504;-71
2021/09/19 18:27:25;;;;;;;16.57;15.40;;;16.60;99.90;;;;;;5021839;28;20946;-71
2021/09/19 18:29:52;;;;;;;17.10;16.10;;;16.60;99.90;;;;;;5030752;28;20659;-71
2021/09/19 18:32:19;;;;;;;16.93;16.03;;;16.60;99.90;;;;;;5030447;28;21002;-71
2021/09/19 18:34:47;;;;;;;19.20;17.90;;;16.60;99.90;;;;;;5030754;28;20457;-71
2021/09/19 18:37:14;;;;;;;16.67;15.77;;;16.60;99.90;;;;;;5031211;28;20467;-71
2021/09/19 18:39:42;;;;;;;17.43;16.23;;;16.60;99.90;;;;;;5031437;28;20547;-71
2021/09/19 18:42:08;;;;;;;15.83;14.93;;;16.60;99.90;;;;;;5031506;28;21083;-71
2021/09/19 18:44:35;;;;;;;16.20;15.27;;;16.60;99.90;;;;;;5028707;28;20449;-71
2021/09/19 18:47:02;;;;;;;15.27;14.30;;;16.60;99.90;;;;;;5030215;28;20453;-71
2021/09/19 18:49:30;;;;;;;15.90;14.90;;;16.70;99.90;;;;;;5030430;28;20457;-71
2021/09/19 18:51:57;;;;;;;15.27;14.37;;;16.60;99.90;;;;;;5030427;28;20511;-71
2021/09/19 18:54:23;;;;;;;14.60;13.80;;;16.60;99.90;;;;;;5030226;28;20867;-70
2021/09/19 18:56:52;;;;;;;16.00;14.90;;;16.60;99.90;;;;;;5030236;28;20471;-71
2021/09/19 18:59:18;;;;;;;16.00;15.10;;;16.60;99.90;;;;;;5030198;28;20507;-71
2021/09/19 19:01:46;;;;;;;16.00;15.10;;;16.60;99.90;;;;;;5030133;28;20484;-71
2021/09/19 19:04:12;;;;;;;15.17;14.37;;;16.60;99.90;;;;;;5030274;28;20453;-70
2021/09/19 19:06:39;;;;;;;15.50;14.60;;;16.60;99.90;;;;;;5029763;28;20507;-71
2021/09/19 19:09:06;;;;;;;15.33;14.53;;;16.70;99.90;;;;;;5030091;28;20459;-71
2021/09/19 19:11:33;;;;;;;15.37;14.43;;;16.70;99.90;;;;;;5030080;28;20445;-72
2021/09/19 19:14:03;;;;;;;16.20;15.30;;;16.80;99.90;;;;;;5030528;28;20823;-71
2021/09/19 19:16:31;;;;;;;14.70;14.00;;;16.80;99.90;;;;;;5030332;28;20445;-71
2021/09/19 19:18:57;;;;;;;14.50;13.80;;;16.90;99.90;;;;;;5030607;28;20480;-71
2021/09/19 19:21:24;;;;;;;15.00;14.20;;;16.90;99.90;;;;;;5029906;28;20575;-71
2021/09/19 19:23:52;;;;;;;14.73;14.00;;;17.00;99.90;;;;;;5029988;28;21025;-71
2021/09/19 19:26:19;;;;;;;14.23;13.53;;;17.10;99.90;;;;;;5030124;28;20468;-71
2021/09/19 19:28:48;;;;;;;16.50;15.40;;;17.20;99.90;;;;;;5030203;28;20883;-71
2021/09/19 19:31:16;;;;;;;16.77;15.77;;;17.20;99.90;;;;;;5030308;28;20811;-71
2021/09/19 19:33:43;;;;;;;16.23;15.03;;;17.30;99.90;;;;;;5030217;28;20456;-71
2021/09/19 19:36:11;;;;;;;16.83;15.73;;;17.30;99.90;;;;;;5030233;28;20449;-71
2021/09/19 19:38:38;;;;;;;14.60;13.90;;;17.30;99.90;;;;;;5030106;28;20567;-71
2021/09/19 19:41:08;;;;;;;15.57;14.60;;;17.30;99.90;;;;;;5031853;28;20492;-71
2021/09/19 19:43:34;;;;;;;15.23;14.40;;;17.30;99.90;;;;;;5030353;28;20951;-70
2021/09/19 19:46:02;;;;;;;14.60;13.80;;;17.30;99.90;;;;;;5033928;28;20813;-71
2021/09/19 19:48:31;;;;;;;14.57;13.67;;;17.20;99.90;;;;;;5034095;28;20829;-71
2021/09/19 19:50:58;;;;;;;15.30;14.40;;;17.20;99.90;;;;;;5033833;28;20453;-70
2021/09/19 19:53:24;;;;;;;15.13;14.30;;;17.20;99.90;;;;;;5033687;28;20444;-73
2021/09/19 19:55:52;;;;;;;15.37;14.57;;;17.30;99.90;;;;;;5033562;28;20449;-72
2021/09/19 19:58:18;;;;;;;14.43;13.73;;;17.20;99.90;;;;;;5033520;28;20444;-72
2021/09/19 20:00:45;;;;;;;14.93;14.23;;;17.10;99.90;;;;;;5033659;28;20468;-71
2021/09/19 20:03:12;;;;;;;14.77;14.07;;;17.10;99.90;;;;;;5033718;28;20457;-71
2021/09/19 20:05:40;;;;;;;14.83;14.03;;;17.20;99.90;;;;;;5033527;28;20457;-71
2021/09/19 20:08:07;;;;;;;14.70;14.00;;;17.20;99.90;;;;;;5033713;28;20903;-72
2021/09/19 20:10:33;;;;;;;14.57;13.77;;;17.20;99.90;;;;;;5033706;28;20449;-72
2021/09/19 20:13:00;;;;;;;15.90;15.10;;;17.10;99.90;;;;;;5033866;28;20445;-71
2021/09/19 20:15:27;;;;;;;15.20;14.50;;;17.00;99.90;;;;;;5033846;28;20456;-71
2021/09/19 20:17:54;;;;;;;15.03;14.27;;;16.90;99.90;;;;;;5033659;28;20456;-71
2021/09/19 20:20:21;;;;;;;14.27;13.67;;;16.90;99.90;;;;;;5033399;28;20879;-71
2021/09/19 20:22:49;;;;;;;15.70;14.83;;;16.90;99.90;;;;;;5033226;28;20493;-72
2021/09/19 20:25:18;;;;;;;15.50;14.67;;;16.90;99.90;;;;;;5033539;28;20456;-72
2021/09/19 20:27:45;;;;;;;16.40;15.60;;;16.80;99.90;;;;;;5033643;28;20449;-72
2021/09/19 20:30:13;;;;;;;15.17;14.37;;;16.70;99.90;;;;;;5033520;28;20448;-72
2021/09/19 20:32:40;;;;;;;15.90;15.10;;;16.60;99.90;;;;;;5033453;28;20441;-72
2021/09/19 20:35:09;;;;;;;15.33;14.53;;;16.40;99.90;;;;;;5033262;28;20460;-70
2021/09/19 20:37:36;;;;;;;15.57;14.77;;;16.20;99.90;;;;;;5033249;28;20449;-72
2021/09/19 20:40:05;;;;;;;15.70;14.90;;;16.10;99.90;;;;;;5033002;28;20457;-72
2021/09/19 20:42:32;;;;;;;15.13;14.40;;;16.00;99.90;;;;;;5027312;28;20978;-72
2021/09/19 20:44:59;;;;;;;15.87;15.07;;;15.90;99.90;;;;;;5011554;28;20454;-72
2021/09/19 20:47:26;;;;;;;16.97;16.07;;;15.80;99.90;;;;;;5011976;28;20445;-73
2021/09/19 20:49:53;;;;;;;16.83;16.00;;;15.60;99.90;;;;;;5011428;28;20469;-72
2021/09/19 20:52:19;;;;;;;16.17;15.37;;;15.50;99.90;;;;;;5011536;28;21124;-73
2021/09/19 20:54:46;;;;;;;16.73;15.93;;;15.40;99.90;;;;;;5011635;28;20450;-72
2021/09/19 20:57:14;;;;;;;16.50;15.67;;;15.40;99.90;;;;;;5011853;28;20453;-72
2021/09/19 20:59:41;;;;;;;17.17;16.17;;;15.30;99.90;;;;;;5011680;28;20790;-71
2021/09/19 21:02:08;;;;;;;17.10;16.20;;;15.30;99.90;;;;;;5009469;28;20605;-71
2021/09/19 21:04:35;;;;;;;16.83;15.93;;;15.30;99.90;;;;;;5009265;28;20466;-72
2021/09/19 21:07:01;;;;;;;16.83;15.97;;;15.20;99.90;;;;;;5010550;28;20846;-72
2021/09/19 21:09:28;;;;;;;17.30;16.17;;;15.20;99.90;;;;;;5010296;28;20462;-71
2021/09/19 21:11:55;;;;;;;15.73;14.83;;;15.30;99.90;;;;;;5011639;28;20446;-73
2021/09/19 21:14:23;;;;;;;16.43;15.53;;;15.30;99.90;;;;;;5011324;28;20509;-71
2021/09/19 21:16:50;;;;;;;17.00;16.10;;;15.20;99.90;;;;;;5011513;28;20442;-73
2021/09/19 21:19:17;;;;;;;16.90;15.90;;;15.10;99.90;;;;;;5011415;28;20462;-72
2021/09/19 21:21:43;;;;;;;17.40;16.50;;;15.00;99.90;;;;;;5010925;28;20887;-71
2021/09/19 21:24:13;;;;;;;17.07;16.17;;;15.00;99.90;;;;;;5011186;28;20952;-70
2021/09/19 21:26:41;;;;;;;18.43;17.43;;;14.90;99.90;;;;;;5011154;28;20500;-71
2021/09/19 21:29:09;;;;;;;17.23;16.13;;;14.80;99.90;;;;;;5011456;28;20446;-70
2021/09/19 21:31:38;;;;;;;16.80;15.80;;;14.80;99.90;;;;;;5011197;28;20496;-71
2021/09/19 21:34:06;;;;;;;17.80;16.70;;;14.80;99.90;;;;;;5008422;28;20452;-72
2021/09/19 21:36:34;;;;;;;17.43;16.20;;;14.70;99.90;;;;;;5010987;28;20453;-72
2021/09/19 21:39:01;;;;;;;16.70;15.80;;;14.70;99.90;;;;;;5011002;28;20443;-72
2021/09/19 21:41:28;;;;;;;17.73;16.77;;;14.60;99.90;;;;;;5010845;28;20442;-72
2021/09/19 21:43:55;;;;;;;16.27;15.40;;;14.60;99.90;;;;;;5011081;28;20455;-72
2021/09/19 21:46:21;;;;;;;17.20;16.27;;;14.60;99.90;;;;;;5010745;28;20931;-72
2021/09/19 21:48:49;;;;;;;17.97;16.87;;;14.60;99.90;;;;;;5010641;28;20434;-72
2021/09/19 21:51:16;;;;;;;18.07;16.97;;;14.50;99.90;;;;;;5010771;28;20458;-72
2021/09/19 21:53:43;;;;;;;18.83;17.73;;;14.50;99.90;;;;;;5010819;28;20438;-72
2021/09/19 21:56:09;;;;;;;17.97;17.00;;;14.50;99.90;;;;;;5010859;28;20516;-71
2021/09/19 21:58:37;;;;;;;18.00;16.97;;;14.50;99.90;;;;;;5010766;28;20450;-72
2021/09/19 22:01:04;;;;;;;17.80;16.80;;;14.60;99.90;;;;;;5010707;28;20449;-71
2021/09/19 22:03:31;;;;;;;17.53;16.60;;;14.60;99.90;;;;;;5009865;28;20446;-72
2021/09/19 22:05:59;;;;;;;16.60;15.70;;;14.70;99.90;;;;;;5011887;28;20458;-72
2021/09/19 22:08:28;;;;;;;16.67;15.63;;;14.60;99.90;;;;;;5011814;28;21067;-71
2021/09/19 22:11:02;;;;;;;17.07;16.17;;;14.70;99.90;;;;;;5006694;28;20569;-72
